Station Historical Data
Daily Summary for September 12, 2017 Units:  English    Metric   Both
« Previous Day
Next Day »
Daily Weekly Monthly Yearly Custom
  High: Low: Average:
Temperature: 80.0 °F 48.7 °F 64.5 °F
Dew Point: 60.5 °F 46.5 °F 53 °F
Humidity: 93% 33% 70%
Wind Speed: 5.0mph 0.0mph 0.6mph
Wind Gust: 7.0mph - -
Wind- - SW
Pressure: 30.14 in 29.88 in -
Precipitation: 0.00 in    
Historical Graphs
 
 
Tabular Data for September 12, 2017
Time Temperature Dew Point Pressure Wind Wind Speed Wind Gust Humidity Rainfall Rate (Hourly)
00:04 56.7 °F 52.9 °F 30.14 in Calm     87% 0.00 in
00:09 56.6 °F 52.8 °F 30.14 in Calm     87% 0.00 in
00:14 56.5 °F 53.0 °F 30.14 in Calm     88% 0.00 in
00:19 56.4 °F 52.9 °F 30.14 in Calm     88% 0.00 in
00:24 56.0 °F 52.5 °F 30.13 in Calm     88% 0.00 in
00:29 55.7 °F 52.2 °F 30.13 in Calm     88% 0.00 in
00:34 55.5 °F 52.0 °F 30.13 in Calm     88% 0.00 in
00:39 55.4 °F 52.2 °F 30.13 in Calm     89% 0.00 in
00:44 55.1 °F 51.9 °F 30.13 in Calm     89% 0.00 in
00:49 55.3 °F 52.4 °F 30.13 in Calm     90% 0.00 in
00:54 55.3 °F 52.1 °F 30.12 in Calm     89% 0.00 in
00:59 55.3 °F 52.4 °F 30.12 in Calm     90% 0.00 in
01:04 55.3 °F 52.4 °F 30.12 in Calm     90% 0.00 in
01:09 55.0 °F 51.8 °F 30.12 in Calm     89% 0.00 in
01:14 54.8 °F 51.9 °F 30.12 in Calm     90% 0.00 in
01:19 54.5 °F 51.3 °F 30.12 in Calm     89% 0.00 in
01:24 54.6 °F 51.7 °F 30.11 in Calm     90% 0.00 in
01:29 54.4 °F 51.5 °F 30.11 in Calm     90% 0.00 in
01:34 54.4 °F 51.5 °F 30.11 in Calm     90% 0.00 in
01:39 54.4 °F 51.8 °F 30.11 in Calm     91% 0.00 in
01:44 54.3 °F 51.4 °F 30.11 in Calm     90% 0.00 in
01:49 54.1 °F 51.2 °F 30.11 in Calm     90% 0.00 in
01:54 54.1 °F 51.5 °F 30.11 in Calm     91% 0.00 in
01:59 54.0 °F 51.1 °F 30.11 in Calm     90% 0.00 in
02:04 53.7 °F 50.8 °F 30.11 in Calm     90% 0.00 in
02:09 53.6 °F 51.0 °F 30.10 in Calm     91% 0.00 in
02:14 53.7 °F 51.1 °F 30.10 in Calm     91% 0.00 in
02:19 53.4 °F 50.8 °F 30.10 in Calm     91% 0.00 in
02:24 53.3 °F 50.7 °F 30.10 in Calm     91% 0.00 in
02:29 53.4 °F 50.8 °F 30.10 in Calm   1.0 mph 91% 0.00 in
02:34 53.5 °F 50.9 °F 30.10 in Calm   1.0 mph 91% 0.00 in
02:39 53.5 °F 50.9 °F 30.10 in Calm     91% 0.00 in
02:44 53.5 °F 50.9 °F 30.10 in Calm     91% 0.00 in
02:49 53.3 °F 50.7 °F 30.10 in Calm     91% 0.00 in
02:54 53.3 °F 50.7 °F 30.10 in Calm     91% 0.00 in
02:59 53.2 °F 50.6 °F 30.09 in Calm     91% 0.00 in
03:04 53.3 °F 50.7 °F 30.09 in Calm     91% 0.00 in
03:09 53.3 °F 50.7 °F 30.10 in Calm     91% 0.00 in
03:14 53.2 °F 50.6 °F 30.10 in Calm     91% 0.00 in
03:19 53.1 °F 50.5 °F 30.10 in Calm     91% 0.00 in
03:24 53.2 °F 50.6 °F 30.09 in Calm     91% 0.00 in
03:29 53.1 °F 50.5 °F 30.09 in Calm     91% 0.00 in
03:34 52.8 °F 50.2 °F 30.10 in Calm     91% 0.00 in
03:39 52.6 °F 50.0 °F 30.09 in Calm     91% 0.00 in
03:44 52.6 °F 50.0 °F 30.09 in Calm     91% 0.00 in
03:49 52.6 °F 50.0 °F 30.09 in Calm     91% 0.00 in
03:54 52.5 °F 49.9 °F 30.09 in Calm     91% 0.00 in
03:59 52.4 °F 49.8 °F 30.09 in Calm     91% 0.00 in
04:04 52.3 °F 49.8 °F 30.08 in Calm     91% 0.00 in
04:09 52.1 °F 49.6 °F 30.08 in Calm     91% 0.00 in
04:14 51.9 °F 49.4 °F 30.08 in Calm     91% 0.00 in
04:19 51.9 °F 49.6 °F 30.08 in Calm     92% 0.00 in
04:24 51.8 °F 49.3 °F 30.08 in Calm     91% 0.00 in
04:29 51.5 °F 49.0 °F 30.08 in Calm     91% 0.00 in
04:34 51.6 °F 49.4 °F 30.08 in Calm     92% 0.00 in
04:39 51.7 °F 49.5 °F 30.08 in Calm     92% 0.00 in
04:44 51.8 °F 49.5 °F 30.08 in Calm     92% 0.00 in
04:49 51.7 °F 49.5 °F 30.07 in Calm     92% 0.00 in
04:54 51.6 °F 49.1 °F 30.07 in Calm     91% 0.00 in
04:59 51.5 °F 49.0 °F 30.07 in Calm     91% 0.00 in
05:04 51.4 °F 49.2 °F 30.07 in Calm     92% 0.00 in
05:09 51.2 °F 49.0 °F 30.07 in Calm     92% 0.00 in
05:14 51.0 °F 48.5 °F 30.07 in Calm     91% 0.00 in
05:19 51.0 °F 48.8 °F 30.07 in Calm     92% 0.00 in
05:24 51.0 °F 48.8 °F 30.06 in Calm     92% 0.00 in
05:29 51.0 °F 48.8 °F 30.06 in Calm     92% 0.00 in
05:34 51.1 °F 48.9 °F 30.06 in Calm     92% 0.00 in
05:39 51.2 °F 49.0 °F 30.06 in Calm     92% 0.00 in
05:44 50.8 °F 48.3 °F 30.06 in Calm     91% 0.00 in
05:49 50.7 °F 48.5 °F 30.06 in Calm     92% 0.00 in
05:54 50.7 °F 48.5 °F 30.06 in Calm     92% 0.00 in
05:59 50.5 °F 48.0 °F 30.06 in Calm     91% 0.00 in
06:04 50.1 °F 47.9 °F 30.07 in Calm     92% 0.00 in
06:09 49.7 °F 47.2 °F 30.07 in Calm     91% 0.00 in
06:14 49.6 °F 47.1 °F 30.07 in Calm     91% 0.00 in
06:19 49.4 °F 47.2 °F 30.07 in Calm     92% 0.00 in
06:24 49.4 °F 47.2 °F 30.07 in Calm     92% 0.00 in
06:29 49.3 °F 47.1 °F 30.07 in Calm     92% 0.00 in
06:34 49.2 °F 47.0 °F 30.07 in Calm     92% 0.00 in
06:39 49.1 °F 46.9 °F 30.07 in Calm     92% 0.00 in
06:44 48.9 °F 46.7 °F 30.07 in Calm     92% 0.00 in
06:49 48.9 °F 46.7 °F 30.07 in Calm     92% 0.00 in
06:54 48.8 °F 46.6 °F 30.07 in Calm     92% 0.00 in
06:59 48.7 °F 46.5 °F 30.07 in Calm     92% 0.00 in
07:04 48.9 °F 46.7 °F 30.07 in Calm     92% 0.00 in
07:09 49.2 °F 47.0 °F 30.07 in Calm     92% 0.00 in
07:14 49.5 °F 47.3 °F 30.07 in Calm     92% 0.00 in
07:19 49.7 °F 47.5 °F 30.07 in Calm     92% 0.00 in
07:24 50.1 °F 48.2 °F 30.07 in Calm     93% 0.00 in
07:29 50.8 °F 48.8 °F 30.07 in Calm     93% 0.00 in
07:34 51.1 °F 49.1 °F 30.07 in Calm     93% 0.00 in
07:39 51.5 °F 49.3 °F 30.07 in Calm     92% 0.00 in
07:44 51.9 °F 49.6 °F 30.07 in Calm     92% 0.00 in
07:49 52.3 °F 50.0 °F 30.07 in Calm     92% 0.00 in
07:54 52.7 °F 50.4 °F 30.07 in Calm     92% 0.00 in
07:59 53.1 °F 50.5 °F 30.07 in Calm     91% 0.00 in
08:04 53.6 °F 50.7 °F 30.07 in Calm     90% 0.00 in
08:09 54.0 °F 50.8 °F 30.07 in Calm     89% 0.00 in
08:14 54.4 °F 51.2 °F 30.07 in Calm     89% 0.00 in
08:19 55.0 °F 51.2 °F 30.06 in Calm     87% 0.00 in
08:24 55.6 °F 51.5 °F 30.07 in Calm     86% 0.00 in
08:29 56.3 °F 51.8 °F 30.07 in Calm     85% 0.00 in
08:34 57.0 °F 51.9 °F 30.06 in Calm     83% 0.00 in
08:39 57.4 °F 51.6 °F 30.06 in Calm     81% 0.00 in
08:44 58.0 °F 52.2 °F 30.06 in Calm     81% 0.00 in
08:49 59.1 °F 52.6 °F 30.06 in Calm     79% 0.00 in
08:54 59.4 °F 52.9 °F 30.06 in Calm     79% 0.00 in
08:59 60.3 °F 52.7 °F 30.06 in Calm     76% 0.00 in
09:04 60.6 °F 53.0 °F 30.06 in Calm     76% 0.00 in
09:09 60.8 °F 52.8 °F 30.06 in Calm     75% 0.00 in
09:14 61.4 °F 53.8 °F 30.06 in Calm     76% 0.00 in
09:19 62.0 °F 53.6 °F 30.06 in Calm     74% 0.00 in
09:24 61.9 °F 53.1 °F 30.06 in Calm     73% 0.00 in
09:29 63.1 °F 54.7 °F 30.06 in Calm     74% 0.00 in
09:34 63.9 °F 54.7 °F 30.06 in Calm     72% 0.00 in
09:39 64.0 °F 53.6 °F 30.06 in Calm     69% 0.00 in
09:44 64.4 °F 54.4 °F 30.06 in Calm     70% 0.00 in
09:49 65.3 °F 54.9 °F 30.06 in Calm     69% 0.00 in
09:54 65.9 °F 55.0 °F 30.06 in Calm     68% 0.00 in
09:59 66.5 °F 55.6 °F 30.06 in Calm     68% 0.00 in
10:04 67.1 °F 56.2 °F 30.06 in Calm     68% 0.00 in
10:09 67.2 °F 53.7 °F 30.06 in Calm     62% 0.00 in
10:14 67.5 °F 55.3 °F 30.06 in Calm     65% 0.00 in
10:19 67.8 °F 54.3 °F 30.06 in Calm     62% 0.00 in
10:24 68.1 °F 54.6 °F 30.06 in Calm     62% 0.00 in
10:29 68.6 °F 54.6 °F 30.06 in Calm     61% 0.00 in
10:34 69.0 °F 55.0 °F 30.05 in Calm     61% 0.00 in
10:39 69.2 °F 55.2 °F 30.05 in Calm     61% 0.00 in
10:44 69.9 °F 55.8 °F 30.05 in Calm     61% 0.00 in
10:49 70.1 °F 55.1 °F 30.05 in Calm     59% 0.00 in
10:54 70.6 °F 55.1 °F 30.05 in Calm     58% 0.00 in
10:59 70.1 °F 55.6 °F 30.05 in WSW 1.0 mph 5.0 mph 60% 0.00 in
11:04 70.8 °F 56.7 °F 30.04 in Calm   4.0 mph 61% 0.00 in
11:09 71.4 °F 56.3 °F 30.04 in WNW 3.0 mph 4.0 mph 59% 0.00 in
11:14 71.4 °F 54.9 °F 30.04 in Calm   4.0 mph 56% 0.00 in
11:19 71.4 °F 55.4 °F 30.04 in NW 1.0 mph 4.0 mph 57% 0.00 in
11:24 72.4 °F 57.7 °F 30.03 in NW 1.0 mph 4.0 mph 60% 0.00 in
11:29 72.8 °F 56.7 °F 30.03 in WNW 2.0 mph 5.0 mph 57% 0.00 in
11:34 72.6 °F 57.9 °F 30.04 in NW 1.0 mph 4.0 mph 60% 0.00 in
11:39 72.3 °F 57.2 °F 30.03 in NW 1.0 mph 2.0 mph 59% 0.00 in
11:44 72.6 °F 56.0 °F 30.03 in North 1.0 mph 3.0 mph 56% 0.00 in
11:49 72.6 °F 57.0 °F 30.03 in NNW 1.0 mph 5.0 mph 58% 0.00 in
11:54 73.1 °F 57.9 °F 30.03 in NW 2.0 mph 5.0 mph 59% 0.00 in
11:59 73.1 °F 56.5 °F 30.03 in NW 1.0 mph 5.0 mph 56% 0.00 in
12:04 73.3 °F 55.6 °F 30.03 in WNW 1.0 mph 3.0 mph 54% 0.00 in
12:09 73.6 °F 57.4 °F 30.03 in NW 2.0 mph 4.0 mph 57% 0.00 in
12:14 74.0 °F 57.3 °F 30.03 in NW 2.0 mph 3.0 mph 56% 0.00 in
12:19 73.9 °F 56.7 °F 30.02 in NW 1.0 mph 3.0 mph 55% 0.00 in
12:24 73.8 °F 56.6 °F 30.02 in NNW 2.0 mph 4.0 mph 55% 0.00 in
12:29 74.3 °F 57.6 °F 30.02 in WNW 3.0 mph 3.0 mph 56% 0.00 in
12:34 74.6 °F 57.9 °F 30.01 in Calm   4.0 mph 56% 0.00 in
12:39 74.3 °F 55.5 °F 30.01 in WNW 1.0 mph 3.0 mph 52% 0.00 in
12:44 74.6 °F 55.3 °F 30.01 in Calm   4.0 mph 51% 0.00 in
12:49 75.4 °F 56.0 °F 30.01 in NW 1.0 mph 4.0 mph 51% 0.00 in
12:54 75.2 °F 56.9 °F 30.01 in NW 1.0 mph 4.0 mph 53% 0.00 in
12:59 75.1 °F 55.7 °F 30.01 in NW 2.0 mph 4.0 mph 51% 0.00 in
13:04 75.4 °F 56.5 °F 30.01 in WSW 1.0 mph 4.0 mph 52% 0.00 in
13:09 75.7 °F 56.3 °F 30.00 in Calm   2.0 mph 51% 0.00 in
13:14 76.3 °F 56.8 °F 30.00 in West 2.0 mph 4.0 mph 51% 0.00 in
13:19 76.3 °F 55.2 °F 30.00 in WSW 3.0 mph 5.0 mph 48% 0.00 in
13:24 76.0 °F 56.6 °F 30.00 in West 3.0 mph 7.0 mph 51% 0.00 in
13:29 76.0 °F 56.0 °F 30.00 in West 3.0 mph 7.0 mph 50% 0.00 in
13:34 76.0 °F 56.0 °F 30.00 in NW 1.0 mph 4.0 mph 50% 0.00 in
13:39 76.7 °F 55.5 °F 30.00 in NW 1.0 mph 4.0 mph 48% 0.00 in
13:49 76.8 °F 53.8 °F 29.99 in SSW 2.0 mph 4.0 mph 45% 0.00 in
13:54 77.8 °F 53.5 °F 29.99 in SSW 2.0 mph 5.0 mph 43% 0.00 in
13:59 77.7 °F 54.0 °F 29.98 in SW 2.0 mph 5.0 mph 44% 0.00 in
14:04 78.0 °F 52.4 °F 29.98 in SW 2.0 mph 6.0 mph 41% 0.00 in
14:09 77.8 °F 49.4 °F 29.98 in SW 2.0 mph 3.0 mph 37% 0.00 in
14:14 78.4 °F 54.7 °F 29.98 in West 1.0 mph 2.0 mph 44% 0.00 in
14:19 77.7 °F 52.1 °F 29.97 in Calm   4.0 mph 41% 0.00 in
14:24 78.3 °F 55.8 °F 29.97 in NW 5.0 mph 7.0 mph 46% 0.00 in
14:29 78.7 °F 56.8 °F 29.97 in West 3.0 mph 7.0 mph 47% 0.00 in
14:34 78.5 °F 53.5 °F 29.97 in West 3.0 mph 6.0 mph 42% 0.00 in
14:39 78.6 °F 53.6 °F 29.97 in West 2.0 mph 5.0 mph 42% 0.00 in
14:44 78.9 °F 52.5 °F 29.97 in WSW 2.0 mph 6.0 mph 40% 0.00 in
14:49 78.5 °F 52.2 °F 29.96 in SW 3.0 mph 6.0 mph 40% 0.00 in
14:54 78.6 °F 52.9 °F 29.96 in Calm   3.0 mph 41% 0.00 in
14:59 78.2 °F 49.8 °F 29.96 in WSW 1.0 mph 4.0 mph 37% 0.00 in
15:04 78.5 °F 52.2 °F 29.96 in WSW 3.0 mph 5.0 mph 40% 0.00 in
15:09 78.5 °F 50.8 °F 29.96 in SSE 1.0 mph 5.0 mph 38% 0.00 in
15:14 78.9 °F 51.8 °F 29.95 in WSW 3.0 mph 5.0 mph 39% 0.00 in
15:19 79.0 °F 51.9 °F 29.95 in West 2.0 mph 6.0 mph 39% 0.00 in
15:24 79.3 °F 51.5 °F 29.95 in West 1.0 mph 3.0 mph 38% 0.00 in
15:29 79.8 °F 53.3 °F 29.95 in West 2.0 mph 6.0 mph 40% 0.00 in
15:34 79.6 °F 52.5 °F 29.95 in WSW 3.0 mph 6.0 mph 39% 0.00 in
15:39 79.3 °F 50.8 °F 29.95 in WSW 2.0 mph 6.0 mph 37% 0.00 in
15:44 79.2 °F 49.9 °F 29.95 in West 2.0 mph 4.0 mph 36% 0.00 in
15:49 79.6 °F 51.0 °F 29.95 in West 1.0 mph 4.0 mph 37% 0.00 in
15:54 80.0 °F 52.1 °F 29.94 in West 2.0 mph 5.0 mph 38% 0.00 in
15:59 79.1 °F 50.6 °F 29.94 in NW 2.0 mph 6.0 mph 37% 0.00 in
16:04 79.6 °F 49.5 °F 29.94 in WNW 4.0 mph 5.0 mph 35% 0.00 in
16:09 80.0 °F 49.9 °F 29.94 in WNW 3.0 mph 5.0 mph 35% 0.00 in
16:14 79.6 °F 49.5 °F 29.94 in West 4.0 mph 5.0 mph 35% 0.00 in
16:24 79.6 °F 50.3 °F 29.93 in WSW 1.0 mph 3.0 mph 36% 0.00 in
16:29 79.6 °F 50.3 °F 29.93 in West 2.0 mph 4.0 mph 36% 0.00 in
16:34 79.2 °F 47.6 °F 29.93 in West 1.0 mph 3.0 mph 33% 0.00 in
16:39 79.3 °F 51.5 °F 29.93 in WNW 1.0 mph 5.0 mph 38% 0.00 in
16:44 79.9 °F 51.3 °F 29.92 in NW 1.0 mph 5.0 mph 37% 0.00 in
16:49 79.5 °F 49.4 °F 29.92 in West 1.0 mph 4.0 mph 35% 0.00 in
16:54 79.7 °F 49.6 °F 29.92 in WSW 2.0 mph 4.0 mph 35% 0.00 in
16:59 79.4 °F 50.9 °F 29.92 in WSW 1.0 mph 5.0 mph 37% 0.00 in
17:04 79.3 °F 50.0 °F 29.92 in WSW 1.0 mph 5.0 mph 36% 0.00 in
17:09 79.3 °F 50.0 °F 29.92 in WSW 2.0 mph 5.0 mph 36% 0.00 in
17:14 78.9 °F 49.7 °F 29.92 in SW 2.0 mph 6.0 mph 36% 0.00 in
17:19 79.0 °F 51.2 °F 29.92 in WSW 2.0 mph 6.0 mph 38% 0.00 in
17:24 79.0 °F 51.9 °F 29.92 in West 2.0 mph 5.0 mph 39% 0.00 in
17:29 78.9 °F 52.5 °F 29.91 in WNW 2.0 mph 4.0 mph 40% 0.00 in
17:34 79.0 °F 51.2 °F 29.91 in WNW 1.0 mph 5.0 mph 38% 0.00 in
17:39 78.7 °F 48.7 °F 29.91 in Calm   2.0 mph 35% 0.00 in
17:44 78.6 °F 50.1 °F 29.91 in Calm   2.0 mph 37% 0.00 in
17:49 78.3 °F 50.6 °F 29.91 in Calm     38% 0.00 in
17:54 78.0 °F 51.7 °F 29.91 in Calm     40% 0.00 in
17:59 77.8 °F 50.2 °F 29.91 in Calm     38% 0.00 in
18:04 77.6 °F 50.7 °F 29.91 in Calm     39% 0.00 in
18:09 77.3 °F 51.1 °F 29.91 in Calm     40% 0.00 in
18:14 77.0 °F 51.5 °F 29.91 in Calm   4.0 mph 41% 0.00 in
18:19 76.7 °F 50.6 °F 29.91 in WNW 1.0 mph 4.0 mph 40% 0.00 in
18:24 76.6 °F 51.1 °F 29.90 in WNW 1.0 mph 3.0 mph 41% 0.00 in
18:29 76.4 °F 52.2 °F 29.90 in Calm   3.0 mph 43% 0.00 in
18:34 76.0 °F 53.1 °F 29.91 in Calm     45% 0.00 in
18:39 75.5 °F 52.1 °F 29.90 in Calm     44% 0.00 in
18:44 75.5 °F 52.1 °F 29.90 in Calm     44% 0.00 in
18:49 75.0 °F 52.2 °F 29.90 in Calm     45% 0.00 in
18:54 74.4 °F 55.1 °F 29.90 in Calm   3.0 mph 51% 0.00 in
18:59 73.6 °F 58.9 °F 29.90 in NE 4.0 mph 4.0 mph 60% 0.00 in
19:04 72.9 °F 60.0 °F 29.90 in NNE 1.0 mph 6.0 mph 64% 0.00 in
19:09 72.1 °F 60.5 °F 29.90 in Calm   4.0 mph 67% 0.00 in
19:14 71.5 °F 60.4 °F 29.90 in NNE 1.0 mph 2.0 mph 68% 0.00 in
19:19 71.2 °F 60.5 °F 29.91 in NE 1.0 mph 4.0 mph 69% 0.00 in
19:24 70.8 °F 60.1 °F 29.90 in NE 2.0 mph 7.0 mph 69% 0.00 in
19:29 70.5 °F 59.8 °F 29.91 in NE 2.0 mph 7.0 mph 69% 0.00 in
19:34 69.9 °F 59.7 °F 29.91 in NE 1.0 mph 4.0 mph 70% 0.00 in
19:39 69.4 °F 59.6 °F 29.90 in NE 1.0 mph 7.0 mph 71% 0.00 in
19:44 69.0 °F 59.2 °F 29.91 in NE 1.0 mph 7.0 mph 71% 0.00 in
19:49 68.7 °F 59.3 °F 29.91 in Calm   3.0 mph 72% 0.00 in
19:54 68.4 °F 59.0 °F 29.91 in NE 1.0 mph 3.0 mph 72% 0.00 in
20:04 68.0 °F 59.0 °F 29.91 in NE 2.0 mph 3.0 mph 73% 0.00 in
20:09 67.9 °F 58.9 °F 29.91 in ENE 2.0 mph 5.0 mph 73% 0.00 in
20:14 67.7 °F 58.7 °F 29.92 in Calm   4.0 mph 73% 0.00 in
20:19 67.3 °F 58.3 °F 29.92 in ENE 1.0 mph 4.0 mph 73% 0.00 in
20:24 67.3 °F 58.3 °F 29.92 in ENE 2.0 mph 7.0 mph 73% 0.00 in
20:29 67.3 °F 58.3 °F 29.91 in NE 3.0 mph 7.0 mph 73% 0.00 in
20:34 67.1 °F 58.2 °F 29.91 in ENE 3.0 mph 7.0 mph 73% 0.00 in
20:39 67.1 °F 58.2 °F 29.92 in ENE 3.0 mph 7.0 mph 73% 0.00 in
20:44 66.8 °F 58.2 °F 29.92 in NE 4.0 mph 6.0 mph 74% 0.00 in
20:49 66.6 °F 58.1 °F 29.92 in ENE 4.0 mph 7.0 mph 74% 0.00 in
20:54 66.3 °F 57.8 °F 29.92 in Calm   4.0 mph 74% 0.00 in
20:59 66.1 °F 57.6 °F 29.92 in ENE 1.0 mph 4.0 mph 74% 0.00 in
21:04 65.8 °F 57.3 °F 29.91 in Calm   4.0 mph 74% 0.00 in
21:09 65.5 °F 57.4 °F 29.91 in Calm   4.0 mph 75% 0.00 in
21:14 65.2 °F 57.1 °F 29.91 in Calm     75% 0.00 in
21:19 65.0 °F 56.9 °F 29.91 in Calm     75% 0.00 in
21:24 64.9 °F 56.8 °F 29.91 in Calm     75% 0.00 in
21:29 64.6 °F 56.5 °F 29.91 in Calm   3.0 mph 75% 0.00 in
21:34 64.5 °F 56.4 °F 29.91 in Calm   2.0 mph 75% 0.00 in
21:39 64.4 °F 56.3 °F 29.91 in Calm     75% 0.00 in
21:44 64.2 °F 56.1 °F 29.91 in Calm   2.0 mph 75% 0.00 in
21:49 64.0 °F 55.9 °F 29.91 in Calm   1.0 mph 75% 0.00 in
21:54 63.8 °F 55.7 °F 29.91 in ENE 3.0 mph 3.0 mph 75% 0.00 in
21:59 63.6 °F 55.9 °F 29.91 in Calm   3.0 mph 76% 0.00 in
22:04 63.5 °F 55.4 °F 29.90 in Calm   3.0 mph 75% 0.00 in
22:09 63.5 °F 55.8 °F 29.90 in Calm   3.0 mph 76% 0.00 in
22:14 63.2 °F 55.5 °F 29.90 in Calm   3.0 mph 76% 0.00 in
22:19 63.1 °F 55.8 °F 29.90 in Calm   4.0 mph 77% 0.00 in
22:24 63.0 °F 55.7 °F 29.90 in Calm   2.0 mph 77% 0.00 in
22:29 62.8 °F 55.5 °F 29.90 in Calm     77% 0.00 in
22:34 62.6 °F 55.6 °F 29.90 in Calm     78% 0.00 in
22:39 62.3 °F 55.4 °F 29.90 in Calm     78% 0.00 in
22:44 62.2 °F 55.6 °F 29.89 in Calm     79% 0.00 in
22:49 62.2 °F 56.0 °F 29.90 in Calm     80% 0.00 in
22:54 62.2 °F 56.0 °F 29.89 in East 1.0 mph 3.0 mph 80% 0.00 in
22:59 62.2 °F 56.0 °F 29.89 in East 2.0 mph 2.0 mph 80% 0.00 in
23:04 62.1 °F 56.2 °F 29.89 in Calm   5.0 mph 81% 0.00 in
23:09 62.0 °F 56.1 °F 29.89 in Calm   5.0 mph 81% 0.00 in
23:19 61.8 °F 56.2 °F 29.89 in ESE 1.0 mph 2.0 mph 82% 0.00 in
23:24 61.7 °F 56.1 °F 29.89 in Calm   2.0 mph 82% 0.00 in
23:29 61.6 °F 56.4 °F 29.88 in ENE 1.0 mph 5.0 mph 83% 0.00 in
23:34 61.6 °F 56.4 °F 29.88 in ENE 1.0 mph 5.0 mph 83% 0.00 in
23:39 61.4 °F 55.9 °F 29.88 in Calm   2.0 mph 82% 0.00 in
23:44 61.2 °F 56.0 °F 29.89 in Calm   2.0 mph 83% 0.00 in
23:49 61.0 °F 55.8 °F 29.89 in Calm     83% 0.00 in
23:54 61.0 °F 56.1 °F 29.89 in Calm   3.0 mph 84% 0.00 in
23:59 60.8 °F 55.9 °F 29.89 in Calm     84% 0.00 in
Buffalo, New York, USA
Compliments of Weather Underground - 2.5 mb